createdAt,value
2016-09-29T00:00:24.350Z,0
2016-09-29T00:01:24.391Z,0
2016-09-29T00:02:24.334Z,0
2016-09-29T00:03:24.372Z,0
2016-09-29T00:04:24.364Z,0
2016-09-29T00:05:24.371Z,0
2016-09-29T00:06:24.347Z,0
2016-09-29T00:07:24.363Z,0
2016-09-29T00:08:24.376Z,0
2016-09-29T00:09:24.371Z,0
2016-09-29T00:10:24.424Z,0
2016-09-29T00:11:24.364Z,0
2016-09-29T00:12:24.377Z,0
2016-09-29T00:13:24.404Z,0
2016-09-29T00:14:24.402Z,0
2016-09-29T00:15:24.424Z,0
2016-09-29T00:16:24.395Z,0
2016-09-29T00:17:24.440Z,0
2016-09-29T00:18:24.379Z,0
2016-09-29T00:19:24.401Z,0
2016-09-29T00:20:24.416Z,0
2016-09-29T00:21:24.415Z,0
2016-09-29T00:22:24.453Z,0
2016-09-29T00:23:24.371Z,0
2016-09-29T00:24:24.415Z,0
2016-09-29T00:25:24.387Z,0
2016-09-29T00:26:24.394Z,0
2016-09-29T00:27:24.356Z,0
2016-09-29T00:28:24.396Z,0
2016-09-29T00:29:24.345Z,0
2016-09-29T00:30:24.399Z,0
2016-09-29T00:31:24.365Z,0
2016-09-29T00:32:24.397Z,0
2016-09-29T00:33:24.357Z,0
2016-09-29T00:34:24.368Z,0
2016-09-29T00:35:24.428Z,0
2016-09-29T00:36:24.431Z,0
2016-09-29T00:37:24.397Z,0
2016-09-29T00:38:24.392Z,0
2016-09-29T00:39:24.371Z,0
2016-09-29T00:40:24.372Z,0
2016-09-29T00:41:24.379Z,0
2016-09-29T00:42:24.371Z,0
2016-09-29T00:43:24.495Z,0
2016-09-29T00:44:24.387Z,0
2016-09-29T00:45:24.412Z,0
2016-09-29T00:46:24.412Z,0
2016-09-29T00:47:24.405Z,0
2016-09-29T00:48:24.432Z,0
2016-09-29T00:49:24.415Z,0
2016-09-29T00:50:24.410Z,0
2016-09-29T00:51:24.404Z,0
2016-09-29T00:52:24.412Z,0
2016-09-29T00:53:24.368Z,0
2016-09-29T00:54:24.392Z,0
2016-09-29T00:55:24.383Z,0
2016-09-29T00:56:24.404Z,0
2016-09-29T00:57:24.393Z,0
2016-09-29T00:58:24.392Z,0
2016-09-29T00:59:24.395Z,0
2016-09-29T01:00:24.378Z,0
2016-09-29T01:01:24.424Z,0
2016-09-29T01:02:24.376Z,0
2016-09-29T01:03:24.392Z,0
2016-09-29T01:04:24.421Z,0
2016-09-29T01:05:24.421Z,0
2016-09-29T01:06:24.424Z,0
2016-09-29T01:07:24.439Z,0
2016-09-29T01:08:24.434Z,0
2016-09-29T01:09:24.418Z,0
2016-09-29T01:10:24.432Z,0
2016-09-29T01:11:24.501Z,0
2016-09-29T01:12:24.463Z,0
2016-09-29T01:13:24.406Z,0
2016-09-29T01:14:24.428Z,0
2016-09-29T01:15:24.431Z,0
2016-09-29T01:16:25.081Z,0
2016-09-29T01:17:24.421Z,0
2016-09-29T01:18:24.440Z,0
2016-09-29T01:19:24.419Z,0
2016-09-29T01:20:24.440Z,0
2016-09-29T01:21:24.465Z,0
2016-09-29T01:22:24.442Z,0
2016-09-29T01:23:24.449Z,0
2016-09-29T01:24:24.443Z,0
2016-09-29T01:25:24.425Z,0
2016-09-29T01:26:24.454Z,0
2016-09-29T01:27:24.415Z,0
2016-09-29T01:28:24.416Z,0
2016-09-29T01:29:24.449Z,0
2016-09-29T01:30:24.407Z,0
2016-09-29T01:31:24.456Z,0
2016-09-29T01:32:24.428Z,0
2016-09-29T01:33:24.412Z,0
2016-09-29T01:34:24.441Z,0
2016-09-29T01:35:25.135Z,0
2016-09-29T01:36:24.459Z,0
2016-09-29T01:37:24.438Z,0
2016-09-29T01:38:24.445Z,0
2016-09-29T01:39:24.435Z,0
2016-09-29T01:40:24.444Z,0
2016-09-29T01:41:24.467Z,0
2016-09-29T01:42:24.447Z,0
2016-09-29T01:43:24.496Z,0
2016-09-29T01:44:24.493Z,0
2016-09-29T01:45:24.442Z,0
2016-09-29T01:46:24.454Z,0
2016-09-29T01:47:24.480Z,0
2016-09-29T01:48:24.427Z,0
2016-09-29T01:49:24.482Z,0
2016-09-29T01:50:24.431Z,0
2016-09-29T01:51:24.457Z,0
2016-09-29T01:52:24.454Z,0
2016-09-29T01:53:24.431Z,0
2016-09-29T01:54:24.431Z,0
2016-09-29T01:55:24.474Z,0
2016-09-29T01:56:24.471Z,0
2016-09-29T01:57:24.454Z,0
2016-09-29T01:58:24.445Z,0
2016-09-29T01:59:24.443Z,0
2016-09-29T02:00:24.485Z,0
2016-09-29T02:01:24.485Z,0
2016-09-29T02:02:24.463Z,0
2016-09-29T02:03:24.455Z,0
2016-09-29T02:04:24.479Z,0
2016-09-29T02:05:24.459Z,0
2016-09-29T02:06:24.493Z,0
2016-09-29T02:07:24.467Z,0
2016-09-29T02:08:24.469Z,0
2016-09-29T02:09:24.494Z,0
2016-09-29T02:10:24.469Z,0
2016-09-29T02:11:24.536Z,0
2016-09-29T02:12:24.468Z,0
2016-09-29T02:13:24.479Z,0
2016-09-29T02:14:24.452Z,0
2016-09-29T02:15:24.499Z,0
2016-09-29T02:16:24.499Z,0
2016-09-29T02:17:24.502Z,0
2016-09-29T02:18:24.544Z,0
2016-09-29T02:19:24.491Z,0
2016-09-29T02:20:24.531Z,0
2016-09-29T02:21:24.518Z,0
2016-09-29T02:22:24.513Z,0
2016-09-29T02:23:24.496Z,0
2016-09-29T02:24:24.534Z,0
2016-09-29T02:25:24.507Z,0
2016-09-29T02:26:24.490Z,0
2016-09-29T02:27:24.520Z,0
2016-09-29T02:28:24.467Z,0
2016-09-29T02:29:24.490Z,0
2016-09-29T02:30:24.452Z,0
2016-09-29T02:31:24.942Z,0
2016-09-29T02:32:24.469Z,0
2016-09-29T02:33:24.484Z,0
2016-09-29T02:34:24.484Z,0
2016-09-29T02:35:24.510Z,0
2016-09-29T02:36:24.506Z,0
2016-09-29T02:37:24.482Z,0
2016-09-29T02:38:24.505Z,0
2016-09-29T02:39:24.491Z,0
2016-09-29T02:40:24.504Z,0
2016-09-29T02:41:24.552Z,0
2016-09-29T02:42:24.530Z,0
2016-09-29T02:43:24.510Z,0
2016-09-29T02:44:24.479Z,0
2016-09-29T02:45:24.607Z,0
2016-09-29T02:46:24.514Z,0
2016-09-29T02:47:24.508Z,0
2016-09-29T02:48:24.529Z,0
2016-09-29T02:49:24.501Z,0
2016-09-29T02:50:24.533Z,0
2016-09-29T02:51:24.537Z,0
2016-09-29T02:52:24.519Z,0
2016-09-29T02:53:24.496Z,0
2016-09-29T02:54:24.538Z,0
2016-09-29T02:55:24.497Z,0
2016-09-29T02:56:24.535Z,0
2016-09-29T02:57:24.558Z,0
2016-09-29T02:58:24.486Z,0
2016-09-29T02:59:24.558Z,0
2016-09-29T03:00:24.537Z,0
2016-09-29T03:01:24.518Z,0
2016-09-29T03:02:24.559Z,0
2016-09-29T03:03:24.515Z,0
2016-09-29T03:04:24.511Z,0
2016-09-29T03:05:24.505Z,0
2016-09-29T03:06:24.526Z,0
2016-09-29T03:07:24.558Z,0
2016-09-29T03:08:24.507Z,0
2016-09-29T03:09:24.530Z,0
2016-09-29T03:10:24.510Z,0
2016-09-29T03:11:24.515Z,0
2016-09-29T03:12:24.533Z,0
2016-09-29T03:13:24.532Z,0
2016-09-29T03:14:24.566Z,0
2016-09-29T03:15:24.516Z,0
2016-09-29T03:16:24.530Z,0
2016-09-29T03:17:24.522Z,0
2016-09-29T03:18:24.507Z,0
2016-09-29T03:19:24.536Z,0
2016-09-29T03:20:24.519Z,0
2016-09-29T03:21:24.541Z,0
2016-09-29T03:22:24.592Z,0
2016-09-29T03:23:24.627Z,0
2016-09-29T03:24:24.524Z,0
2016-09-29T03:25:24.520Z,0
2016-09-29T03:26:25.406Z,0
2016-09-29T03:27:24.549Z,0
2016-09-29T03:28:24.549Z,0
2016-09-29T03:29:24.548Z,0
2016-09-29T03:30:24.571Z,0
2016-09-29T03:31:24.573Z,0
2016-09-29T03:32:24.649Z,0
2016-09-29T03:33:24.571Z,0
2016-09-29T03:34:24.563Z,0
2016-09-29T03:35:24.568Z,0
2016-09-29T03:36:24.577Z,0
2016-09-29T03:37:24.557Z,0
2016-09-29T03:38:24.529Z,0
2016-09-29T03:39:24.529Z,0
2016-09-29T03:40:24.537Z,0
2016-09-29T03:41:24.579Z,0
2016-09-29T03:42:25.504Z,0
2016-09-29T03:43:24.572Z,0
2016-09-29T03:44:24.545Z,0
2016-09-29T03:45:24.551Z,0
2016-09-29T03:46:24.545Z,0
2016-09-29T03:47:24.572Z,0
2016-09-29T03:48:24.558Z,0
2016-09-29T03:49:24.556Z,0
2016-09-29T03:50:24.575Z,0
2016-09-29T03:51:24.595Z,0
2016-09-29T03:52:24.610Z,0
2016-09-29T03:53:24.575Z,0
2016-09-29T03:54:24.616Z,0
2016-09-29T03:55:24.565Z,0
2016-09-29T03:56:24.603Z,0
2016-09-29T03:57:24.667Z,0
2016-09-29T03:58:24.561Z,0
2016-09-29T03:59:24.562Z,0
2016-09-29T04:00:24.556Z,0
2016-09-29T04:01:24.557Z,0
2016-09-29T04:02:24.695Z,0
2016-09-29T04:03:24.584Z,0
2016-09-29T04:04:24.548Z,0
2016-09-29T04:05:24.587Z,0
2016-09-29T04:06:24.585Z,0
2016-09-29T04:07:24.600Z,0
2016-09-29T04:08:24.593Z,0
2016-09-29T04:09:24.576Z,0
2016-09-29T04:10:24.579Z,0
2016-09-29T04:11:24.598Z,0
2016-09-29T04:12:24.578Z,0
2016-09-29T04:13:24.571Z,0
2016-09-29T04:14:24.591Z,0
2016-09-29T04:15:24.607Z,0
2016-09-29T04:16:24.585Z,0
2016-09-29T04:17:24.597Z,0
2016-09-29T04:18:24.574Z,0
2016-09-29T04:19:24.604Z,0
2016-09-29T04:20:24.600Z,0
2016-09-29T04:21:24.593Z,0
2016-09-29T04:22:24.610Z,0
2016-09-29T04:23:24.577Z,0
2016-09-29T04:24:24.580Z,0
2016-09-29T04:25:24.601Z,0
2016-09-29T04:26:24.707Z,0
2016-09-29T04:27:24.757Z,0
2016-09-29T04:28:24.620Z,0
2016-09-29T04:29:24.625Z,0
2016-09-29T04:30:24.588Z,0
2016-09-29T04:31:24.595Z,0
2016-09-29T04:32:24.688Z,0
2016-09-29T04:33:24.654Z,0
2016-09-29T04:34:24.615Z,0
2016-09-29T04:35:24.684Z,0
2016-09-29T04:36:24.617Z,0
2016-09-29T04:37:24.651Z,0
2016-09-29T04:38:24.623Z,0
2016-09-29T04:39:24.621Z,0
2016-09-29T04:40:24.611Z,0
2016-09-29T04:41:24.631Z,0
2016-09-29T04:42:24.831Z,0
2016-09-29T04:43:24.603Z,0
2016-09-29T04:44:24.627Z,0
2016-09-29T04:45:24.613Z,0
2016-09-29T04:46:24.609Z,0
2016-09-29T04:47:24.637Z,0
2016-09-29T04:48:24.603Z,0
2016-09-29T04:49:24.597Z,0
2016-09-29T04:50:24.606Z,0
2016-09-29T04:51:24.617Z,0
2016-09-29T04:52:24.625Z,0
2016-09-29T04:53:24.610Z,0
2016-09-29T04:54:24.604Z,0
2016-09-29T04:55:24.615Z,0
2016-09-29T04:56:24.598Z,0
2016-09-29T04:57:24.648Z,0
2016-09-29T04:58:24.647Z,4
2016-09-29T04:59:24.589Z,4
2016-09-29T05:00:24.602Z,4
2016-09-29T05:01:24.592Z,0
2016-09-29T05:02:24.628Z,4
2016-09-29T05:03:24.607Z,4
2016-09-29T05:04:24.621Z,8
2016-09-29T05:05:24.586Z,8
2016-09-29T05:06:24.621Z,8
2016-09-29T05:07:24.623Z,12
2016-09-29T05:08:24.608Z,12
2016-09-29T05:09:24.630Z,16
2016-09-29T05:10:24.639Z,20
2016-09-29T05:11:24.646Z,20
2016-09-29T05:12:24.865Z,28
2016-09-29T05:13:24.655Z,32
2016-09-29T05:14:24.633Z,40
2016-09-29T05:15:24.642Z,48
2016-09-29T05:16:24.666Z,52
2016-09-29T05:17:24.674Z,64
2016-09-29T05:18:24.665Z,72
2016-09-29T05:19:24.616Z,80
2016-09-29T05:20:24.686Z,92
2016-09-29T05:21:24.641Z,104
2016-09-29T05:22:24.849Z,116
2016-09-29T05:23:24.650Z,136
2016-09-29T05:24:25.510Z,148
2016-09-29T05:25:25.340Z,152
2016-09-29T05:26:24.646Z,164
2016-09-29T05:27:24.661Z,176
2016-09-29T05:28:24.804Z,188
2016-09-29T05:29:24.689Z,204
2016-09-29T05:30:24.687Z,216
2016-09-29T05:31:24.656Z,236
2016-09-29T05:32:24.646Z,248
2016-09-29T05:33:24.662Z,260
2016-09-29T05:34:24.701Z,276
2016-09-29T05:35:24.687Z,292
2016-09-29T05:36:24.649Z,308
2016-09-29T05:37:24.626Z,320
2016-09-29T05:38:24.684Z,328
2016-09-29T05:39:24.674Z,344
2016-09-29T05:40:24.654Z,364
2016-09-29T05:41:24.661Z,388
2016-09-29T05:42:24.678Z,416
2016-09-29T05:43:25.161Z,456
2016-09-29T05:44:24.693Z,496
2016-09-29T05:45:24.697Z,556
2016-09-29T05:46:24.665Z,632
2016-09-29T05:47:24.658Z,708
2016-09-29T05:48:24.657Z,760
2016-09-29T05:49:24.682Z,792
2016-09-29T05:50:24.654Z,828
2016-09-29T05:51:24.664Z,872
2016-09-29T05:52:24.653Z,924
2016-09-29T05:53:24.702Z,968
2016-09-29T05:54:24.702Z,1008
2016-09-29T05:55:24.692Z,1040
2016-09-29T05:56:24.763Z,1080
2016-09-29T05:57:24.688Z,1128
2016-09-29T05:58:24.737Z,1180
2016-09-29T05:59:24.705Z,1232
2016-09-29T06:00:24.685Z,1284
2016-09-29T06:01:24.786Z,1328
2016-09-29T06:02:24.766Z,1392
2016-09-29T06:03:24.685Z,1476
2016-09-29T06:04:24.687Z,1560
2016-09-29T06:05:24.668Z,1644
2016-09-29T06:06:24.700Z,1744
2016-09-29T06:07:24.712Z,1884
2016-09-29T06:08:24.746Z,2052
2016-09-29T06:09:24.727Z,2148
2016-09-29T06:10:24.721Z,2092
2016-09-29T06:11:24.696Z,2024
2016-09-29T06:12:24.715Z,1960
2016-09-29T06:13:24.785Z,1892
2016-09-29T06:14:24.739Z,1860
2016-09-29T06:15:24.913Z,1820
2016-09-29T06:16:24.715Z,1792
2016-09-29T06:17:24.737Z,1800
2016-09-29T06:18:24.706Z,1860
2016-09-29T06:19:24.784Z,1972
2016-09-29T06:20:24.742Z,2148
2016-09-29T06:21:24.754Z,2380
2016-09-29T06:22:24.815Z,2616
2016-09-29T06:23:24.738Z,2728
2016-09-29T06:24:24.769Z,2712
2016-09-29T06:25:24.727Z,2672
2016-09-29T06:26:24.710Z,2604
2016-09-29T06:27:24.696Z,2564
2016-09-29T06:28:24.686Z,2484
2016-09-29T06:29:24.706Z,2488
2016-09-29T06:30:24.701Z,2416
2016-09-29T06:31:24.693Z,2324
2016-09-29T06:32:24.716Z,2188
2016-09-29T06:33:24.721Z,2248
2016-09-29T06:34:24.744Z,2324
2016-09-29T06:35:24.721Z,2340
2016-09-29T06:36:24.701Z,2460
2016-09-29T06:37:24.721Z,2508
2016-09-29T06:38:24.697Z,2504
2016-09-29T06:39:24.778Z,2720
2016-09-29T06:40:24.725Z,2708
2016-09-29T06:41:24.718Z,2676
2016-09-29T06:42:24.740Z,2652
2016-09-29T06:43:24.699Z,2464
2016-09-29T06:44:24.756Z,2380
2016-09-29T06:45:24.769Z,2448
2016-09-29T06:46:24.767Z,2572
2016-09-29T06:47:24.783Z,2528
2016-09-29T06:48:24.776Z,2448
2016-09-29T06:49:24.749Z,2340
2016-09-29T06:50:24.788Z,2316
2016-09-29T06:51:24.744Z,2424
2016-09-29T06:52:24.762Z,2664
2016-09-29T06:53:24.746Z,2664
2016-09-29T06:54:24.724Z,2560
2016-09-29T06:55:24.731Z,2824
2016-09-29T06:56:24.718Z,2992
2016-09-29T06:57:24.715Z,2972
2016-09-29T06:58:24.721Z,3324
2016-09-29T06:59:24.730Z,3660
2016-09-29T07:00:24.815Z,4076
2016-09-29T07:01:24.766Z,4596
2016-09-29T07:02:24.720Z,5132
2016-09-29T07:03:24.783Z,5652
2016-09-29T07:04:24.760Z,6068
2016-09-29T07:05:24.737Z,6288
2016-09-29T07:06:24.734Z,6284
2016-09-29T07:07:24.734Z,6072
2016-09-29T07:08:24.761Z,5760
2016-09-29T07:09:24.761Z,5444
2016-09-29T07:10:24.746Z,5132
2016-09-29T07:11:24.726Z,4916
2016-09-29T07:12:24.732Z,4876
2016-09-29T07:13:24.757Z,4976
2016-09-29T07:14:24.721Z,5164
2016-09-29T07:15:24.749Z,5352
2016-09-29T07:16:24.750Z,5408
2016-09-29T07:17:24.776Z,5384
2016-09-29T07:18:24.751Z,5144
2016-09-29T07:19:24.786Z,4780
2016-09-29T07:20:24.750Z,4380
2016-09-29T07:21:24.786Z,3696
2016-09-29T07:22:24.747Z,3904
2016-09-29T07:23:24.755Z,4056
2016-09-29T07:24:24.777Z,4016
2016-09-29T07:25:24.755Z,4004
2016-09-29T07:26:24.760Z,3752
2016-09-29T07:27:24.766Z,3664
2016-09-29T07:28:24.731Z,3388
2016-09-29T07:29:24.736Z,3216
2016-09-29T07:30:24.750Z,2840
2016-09-29T07:31:24.782Z,2344
2016-09-29T07:32:24.786Z,2276
2016-09-29T07:33:24.802Z,2196
2016-09-29T07:34:24.800Z,2132
2016-09-29T07:35:24.766Z,2236
2016-09-29T07:36:24.792Z,2456
2016-09-29T07:37:24.800Z,2596
2016-09-29T07:38:24.849Z,3220
2016-09-29T07:39:24.757Z,3512
2016-09-29T07:40:24.775Z,3624
2016-09-29T07:41:24.803Z,3740
2016-09-29T07:42:24.792Z,3764
2016-09-29T07:43:24.795Z,3780
2016-09-29T07:44:24.789Z,3812
2016-09-29T07:45:24.824Z,3940
2016-09-29T07:46:24.885Z,4044
2016-09-29T07:47:24.795Z,4140
2016-09-29T07:48:24.802Z,4232
2016-09-29T07:49:24.779Z,4324
2016-09-29T07:50:24.785Z,4388
2016-09-29T07:51:24.808Z,4480
2016-09-29T07:52:24.809Z,4500
2016-09-29T07:53:24.777Z,4724
2016-09-29T07:54:24.862Z,4748
2016-09-29T07:55:24.827Z,4456
2016-09-29T07:56:24.820Z,4548
2016-09-29T07:57:24.781Z,5420
2016-09-29T07:58:24.834Z,5780
2016-09-29T07:59:24.801Z,5824
2016-09-29T08:00:25.014Z,5852
2016-09-29T08:01:24.767Z,5768
2016-09-29T08:02:24.792Z,5512
2016-09-29T08:03:24.777Z,5144
2016-09-29T08:04:24.860Z,4832
2016-09-29T08:05:24.859Z,4476
2016-09-29T08:06:24.786Z,4172
2016-09-29T08:07:24.820Z,3948
2016-09-29T08:08:24.829Z,3740
2016-09-29T08:09:24.859Z,3620
2016-09-29T08:10:24.877Z,3604
2016-09-29T08:11:24.809Z,3600
2016-09-29T08:12:24.828Z,3600
2016-09-29T08:13:24.919Z,3804
2016-09-29T08:14:24.838Z,4376
2016-09-29T08:15:24.821Z,4516
2016-09-29T08:16:24.905Z,4732
2016-09-29T08:17:24.904Z,4760
2016-09-29T08:18:24.851Z,4672
2016-09-29T08:19:24.787Z,4444
2016-09-29T08:20:24.823Z,4568
2016-09-29T08:21:24.828Z,4572
2016-09-29T08:22:24.860Z,4476
2016-09-29T08:23:24.849Z,4652
2016-09-29T08:24:24.881Z,4864
2016-09-29T08:25:24.826Z,4952
2016-09-29T08:26:24.833Z,5364
2016-09-29T08:27:24.842Z,5660
2016-09-29T08:28:24.849Z,6172
2016-09-29T08:29:24.906Z,6736
2016-09-29T08:30:24.830Z,7080
2016-09-29T08:31:24.841Z,7244
2016-09-29T08:32:24.824Z,7188
2016-09-29T08:33:24.831Z,6988
2016-09-29T08:34:24.840Z,6708
2016-09-29T08:35:24.823Z,6388
2016-09-29T08:36:24.817Z,5836
2016-09-29T08:37:24.844Z,5620
2016-09-29T08:38:24.833Z,5324
2016-09-29T08:39:24.839Z,4992
2016-09-29T08:40:24.859Z,4944
2016-09-29T08:41:24.866Z,5120
2016-09-29T08:42:24.874Z,5260
2016-09-29T08:43:24.855Z,5396
2016-09-29T08:44:24.894Z,6252
2016-09-29T08:45:24.827Z,6908
2016-09-29T08:46:24.910Z,7844
2016-09-29T08:47:24.888Z,8484
2016-09-29T08:48:24.852Z,9152
2016-09-29T08:49:24.853Z,9832
2016-09-29T08:50:24.878Z,10216
2016-09-29T08:51:24.863Z,10516
2016-09-29T08:52:24.884Z,10504
2016-09-29T08:53:24.831Z,10484
2016-09-29T08:54:24.845Z,10472
2016-09-29T08:55:24.887Z,10028
2016-09-29T08:56:24.864Z,9964
2016-09-29T08:57:24.897Z,10088
2016-09-29T08:58:24.891Z,9904
2016-09-29T08:59:25.045Z,8976
2016-09-29T09:00:24.891Z,8684
2016-09-29T09:01:24.853Z,9492
2016-09-29T09:02:24.949Z,10532
2016-09-29T09:03:24.894Z,11472
2016-09-29T09:04:24.861Z,12280
2016-09-29T09:05:24.875Z,12804
2016-09-29T09:06:24.857Z,12536
2016-09-29T09:07:24.895Z,12440
2016-09-29T09:08:24.889Z,12044
2016-09-29T09:09:24.868Z,13208
2016-09-29T09:10:24.897Z,11868
2016-09-29T09:11:24.881Z,9668
2016-09-29T09:12:24.889Z,8744
2016-09-29T09:13:24.848Z,8372
2016-09-29T09:14:24.860Z,7676
2016-09-29T09:15:24.875Z,6024
2016-09-29T09:16:24.881Z,5424
2016-09-29T09:17:28.358Z,5496
2016-09-29T09:18:24.914Z,5612
2016-09-29T09:19:24.879Z,5400
2016-09-29T09:20:24.849Z,5264
2016-09-29T09:21:24.918Z,5048
2016-09-29T09:22:24.872Z,4892
2016-09-29T09:23:24.889Z,5216
2016-09-29T09:24:24.862Z,5448
2016-09-29T09:25:24.936Z,5380
2016-09-29T09:26:24.904Z,5356
2016-09-29T09:27:24.898Z,5192
2016-09-29T09:28:24.879Z,4544
2016-09-29T09:29:24.926Z,3936
2016-09-29T09:30:24.975Z,4496
2016-09-29T09:31:24.927Z,3476
2016-09-29T09:32:24.857Z,4136
2016-09-29T09:33:24.998Z,5096
2016-09-29T09:34:24.891Z,6840
2016-09-29T09:35:24.937Z,5960
2016-09-29T09:36:24.885Z,5616
2016-09-29T09:37:24.919Z,5636
2016-09-29T09:38:24.958Z,5236
2016-09-29T09:39:24.934Z,4920
2016-09-29T09:40:24.918Z,5972
2016-09-29T09:41:24.904Z,6204
2016-09-29T09:42:24.948Z,6676
2016-09-29T09:43:24.945Z,7756
2016-09-29T09:44:24.927Z,7288
2016-09-29T09:45:24.946Z,6124
2016-09-29T09:46:24.916Z,6020
2016-09-29T09:47:24.991Z,6508
2016-09-29T09:48:24.911Z,5224
2016-09-29T09:49:24.933Z,5916
2016-09-29T09:50:24.927Z,6076
2016-09-29T09:51:24.942Z,6444
2016-09-29T09:52:24.919Z,6836
2016-09-29T09:53:24.935Z,5656
2016-09-29T09:54:24.924Z,4368
2016-09-29T09:55:24.917Z,3940
2016-09-29T09:56:24.896Z,3740
2016-09-29T09:57:24.920Z,4224
2016-09-29T09:58:24.925Z,3924
2016-09-29T09:59:24.917Z,5112
2016-09-29T10:00:24.932Z,4248
2016-09-29T10:01:24.975Z,4872
2016-09-29T10:02:24.937Z,5140
2016-09-29T10:03:24.902Z,4936
2016-09-29T10:04:24.920Z,4680
2016-09-29T10:05:24.871Z,5540
2016-09-29T10:06:24.888Z,5692
2016-09-29T10:07:24.883Z,5204
2016-09-29T10:08:24.903Z,7660
2016-09-29T10:09:24.924Z,6604
2016-09-29T10:10:24.932Z,6488
2016-09-29T10:11:24.923Z,9756
2016-09-29T10:12:24.929Z,8312
2016-09-29T10:13:24.933Z,7064
2016-09-29T10:14:24.913Z,5936
2016-09-29T10:15:24.919Z,7600
2016-09-29T10:16:24.965Z,6684
2016-09-29T10:17:24.933Z,7300
2016-09-29T10:18:25.011Z,5376
2016-09-29T10:19:24.961Z,5476
2016-09-29T10:20:24.924Z,6684
2016-09-29T10:21:24.925Z,6784
2016-09-29T10:22:24.989Z,8564
2016-09-29T10:23:24.940Z,7392
2016-09-29T10:24:24.933Z,5652
2016-09-29T10:25:24.927Z,5396
2016-09-29T10:26:24.956Z,5820
2016-09-29T10:27:24.946Z,5568
2016-09-29T10:28:24.956Z,5572
2016-09-29T10:29:24.975Z,5840
2016-09-29T10:30:25.000Z,6584
2016-09-29T10:31:24.989Z,6612
2016-09-29T10:32:25.001Z,7124
2016-09-29T10:33:24.945Z,9328
2016-09-29T10:34:24.939Z,7968
2016-09-29T10:35:24.953Z,9704
2016-09-29T10:36:24.932Z,8152
2016-09-29T10:37:24.969Z,8004
2016-09-29T10:38:24.985Z,8236
2016-09-29T10:39:24.970Z,7708
2016-09-29T10:40:24.935Z,8404
2016-09-29T10:41:24.950Z,8668
2016-09-29T10:42:24.961Z,8596
2016-09-29T10:43:24.979Z,8748
2016-09-29T10:44:24.979Z,8040
2016-09-29T10:45:24.944Z,8344
2016-09-29T10:46:24.941Z,8188
2016-09-29T10:47:24.990Z,7948
2016-09-29T10:48:24.966Z,7160
2016-09-29T10:49:24.997Z,6768
2016-09-29T10:50:24.935Z,6720
2016-09-29T10:51:25.060Z,6456
2016-09-29T10:52:24.971Z,5996
2016-09-29T10:53:25.009Z,5820
2016-09-29T10:54:24.948Z,5928
2016-09-29T10:55:25.028Z,6152
2016-09-29T10:56:24.996Z,7020
2016-09-29T10:57:24.973Z,7684
2016-09-29T10:58:25.020Z,7576
2016-09-29T10:59:24.954Z,6732
2016-09-29T11:00:24.990Z,6648
2016-09-29T11:01:24.981Z,6312
2016-09-29T11:02:25.024Z,5892
2016-09-29T11:03:25.012Z,5716
2016-09-29T11:04:24.958Z,5400
2016-09-29T11:05:24.966Z,5324
2016-09-29T11:06:24.989Z,5532
2016-09-29T11:07:25.122Z,5416
2016-09-29T11:08:24.990Z,5400
2016-09-29T11:09:25.099Z,5336
2016-09-29T11:10:25.071Z,7116
2016-09-29T11:11:24.988Z,6568
2016-09-29T11:12:25.082Z,5964
2016-09-29T11:13:25.358Z,4956
2016-09-29T11:14:24.999Z,4712
2016-09-29T11:15:24.979Z,5144
2016-09-29T11:16:25.249Z,5212
2016-09-29T11:17:25.021Z,6856
2016-09-29T11:18:25.047Z,6432
2016-09-29T11:19:24.997Z,5596
2016-09-29T11:20:25.026Z,6412
2016-09-29T11:21:25.032Z,9684
2016-09-29T11:22:24.988Z,7500
2016-09-29T11:23:25.182Z,7528
2016-09-29T11:24:25.146Z,7024
2016-09-29T11:25:25.080Z,6512
2016-09-29T11:26:24.993Z,6172
2016-09-29T11:27:24.991Z,6544
2016-09-29T11:28:25.032Z,6840
2016-09-29T11:29:25.264Z,6116
2016-09-29T11:30:25.018Z,7932
2016-09-29T11:31:25.031Z,9604
2016-09-29T11:32:25.067Z,8660
2016-09-29T11:33:25.264Z,5976
2016-09-29T11:34:25.363Z,6224
2016-09-29T11:35:25.038Z,7528
2016-09-29T11:36:25.069Z,7204
2016-09-29T11:37:25.439Z,7280
2016-09-29T11:38:25.022Z,6260
2016-09-29T11:39:25.062Z,6756
2016-09-29T11:40:25.108Z,8856
2016-09-29T11:41:25.043Z,7604
2016-09-29T11:42:25.076Z,7328
2016-09-29T11:43:25.189Z,8692
2016-09-29T11:44:25.001Z,6236
2016-09-29T11:45:25.028Z,6680
2016-09-29T11:46:24.997Z,7048
2016-09-29T11:47:25.083Z,7172
2016-09-29T11:48:25.089Z,9692
2016-09-29T11:49:25.015Z,12376
2016-09-29T11:50:25.280Z,12320
2016-09-29T11:51:25.344Z,15016
2016-09-29T11:52:25.084Z,16544
2016-09-29T11:53:25.060Z,16644
2016-09-29T11:54:25.034Z,14812
2016-09-29T11:55:25.025Z,12068
2016-09-29T11:56:25.046Z,11380
2016-09-29T11:57:25.053Z,11872
2016-09-29T11:58:25.075Z,8736
2016-09-29T11:59:25.038Z,10124
2016-09-29T12:00:25.579Z,13120
2016-09-29T12:01:25.143Z,12668
2016-09-29T12:02:25.050Z,12440
2016-09-29T12:03:25.092Z,9952
2016-09-29T12:04:25.037Z,9728
2016-09-29T12:05:25.185Z,11240
2016-09-29T12:06:25.252Z,9496
2016-09-29T12:07:25.056Z,9828
2016-09-29T12:08:25.109Z,11292
2016-09-29T12:09:25.036Z,9412
2016-09-29T12:10:25.204Z,7112
2016-09-29T12:11:25.064Z,8596
2016-09-29T12:12:25.075Z,10632
2016-09-29T12:13:25.062Z,10344
2016-09-29T12:14:25.100Z,10896
2016-09-29T12:15:25.037Z,11632
2016-09-29T12:16:25.075Z,11700
2016-09-29T12:17:25.073Z,11988
2016-09-29T12:18:25.101Z,11796
2016-09-29T12:19:25.085Z,10132
2016-09-29T12:20:25.065Z,9732
2016-09-29T12:21:25.127Z,8856
2016-09-29T12:22:25.100Z,8364
2016-09-29T12:23:25.140Z,8096
2016-09-29T12:24:25.113Z,7816
2016-09-29T12:25:25.094Z,7884
2016-09-29T12:26:25.080Z,7208
2016-09-29T12:27:25.093Z,6624
2016-09-29T12:28:25.105Z,6720
2016-09-29T12:29:25.078Z,6340
2016-09-29T12:30:25.562Z,6988
2016-09-29T12:31:25.033Z,8084
2016-09-29T12:32:25.065Z,7652
2016-09-29T12:33:25.090Z,7368
2016-09-29T12:34:25.052Z,8252
2016-09-29T12:35:25.084Z,6384
2016-09-29T12:36:25.151Z,5880
2016-09-29T12:37:25.072Z,6852
2016-09-29T12:38:25.151Z,6256
2016-09-29T12:39:25.199Z,6472
2016-09-29T12:40:25.090Z,6624
2016-09-29T12:41:25.081Z,6292
2016-09-29T12:42:25.088Z,6324
2016-09-29T12:43:25.047Z,7036
2016-09-29T12:44:25.068Z,7096
2016-09-29T12:45:25.083Z,7660
2016-09-29T12:46:25.103Z,7836
2016-09-29T12:47:25.122Z,7648
2016-09-29T12:48:25.100Z,8156
2016-09-29T12:49:25.110Z,9036
2016-09-29T12:50:25.097Z,8368
2016-09-29T12:51:25.057Z,7140
2016-09-29T12:52:25.097Z,7496
2016-09-29T12:53:25.632Z,8776
2016-09-29T12:54:25.081Z,8012
2016-09-29T12:55:25.109Z,7836
2016-09-29T12:56:25.081Z,8516
2016-09-29T12:57:25.073Z,8888
2016-09-29T12:58:25.122Z,8944
2016-09-29T12:59:25.085Z,9248
2016-09-29T13:00:25.119Z,8876
2016-09-29T13:01:25.141Z,8380
2016-09-29T13:02:25.173Z,5808
2016-09-29T13:03:25.153Z,6296
2016-09-29T13:04:25.453Z,8128
2016-09-29T13:05:25.992Z,6916
2016-09-29T13:06:25.118Z,6300
2016-09-29T13:07:25.151Z,5796
2016-09-29T13:08:25.162Z,5836
2016-09-29T13:09:25.176Z,5468
2016-09-29T13:10:25.099Z,4640
2016-09-29T13:11:25.076Z,5600
2016-09-29T13:12:25.151Z,6544
2016-09-29T13:13:25.129Z,6500
2016-09-29T13:14:25.121Z,5736
2016-09-29T13:15:25.095Z,7016
2016-09-29T13:16:25.120Z,8772
2016-09-29T13:17:25.149Z,8928
2016-09-29T13:18:25.320Z,10444
2016-09-29T13:19:25.124Z,10180
2016-09-29T13:20:25.268Z,8828
2016-09-29T13:21:25.577Z,9928
2016-09-29T13:22:25.139Z,10000
2016-09-29T13:23:25.160Z,10876
2016-09-29T13:24:25.138Z,9504
2016-09-29T13:25:25.229Z,9524
2016-09-29T13:26:25.122Z,9948
2016-09-29T13:27:25.373Z,7336
2016-09-29T13:28:25.268Z,7152
2016-09-29T13:29:25.182Z,8792
2016-09-29T13:30:25.113Z,8956
2016-09-29T13:31:25.211Z,8160
2016-09-29T13:32:25.156Z,6240
2016-09-29T13:33:25.136Z,5968
2016-09-29T13:34:25.481Z,4912
2016-09-29T13:35:25.135Z,4036
2016-09-29T13:36:25.163Z,4752
2016-09-29T13:37:25.153Z,5388
2016-09-29T13:38:25.129Z,6488
2016-09-29T13:39:25.144Z,7332
2016-09-29T13:40:25.142Z,7796
2016-09-29T13:41:25.299Z,8328
2016-09-29T13:42:25.309Z,9588
2016-09-29T13:43:25.147Z,10520
2016-09-29T13:44:25.186Z,10988
2016-09-29T13:45:25.324Z,10000
2016-09-29T13:46:25.285Z,8208
2016-09-29T13:47:25.130Z,6132
2016-09-29T13:48:25.146Z,4888
2016-09-29T13:49:25.144Z,5300